createdAt,value
2018-08-16T00:01:13.481Z,91.23
2018-08-16T00:04:11.369Z,93.08
2018-08-16T00:07:10.334Z,93.44
2018-08-16T00:10:08.605Z,92.97
2018-08-16T00:13:07.700Z,93.93
2018-08-16T00:16:05.909Z,94.56
2018-08-16T00:19:04.332Z,95.76
2018-08-16T00:22:02.357Z,94.72
2018-08-16T00:25:01.663Z,93.97
2018-08-16T00:27:59.565Z,94.00
2018-08-16T00:30:57.592Z,93.83
2018-08-16T00:33:55.825Z,93.85
2018-08-16T00:36:54.106Z,93.70
2018-08-16T00:39:52.268Z,93.99
2018-08-16T00:42:50.448Z,94.10
2018-08-16T00:45:48.406Z,93.83
2018-08-16T00:48:46.313Z,93.10
2018-08-16T00:51:44.621Z,92.14
2018-08-16T00:54:44.841Z,90.65
2018-08-16T00:57:43.849Z,90.57
2018-08-16T01:00:42.087Z,91.06
2018-08-16T01:03:41.353Z,90.34
2018-08-16T01:06:39.525Z,90.51
2018-08-16T01:09:37.593Z,90.45
2018-08-16T01:12:36.563Z,91.41
2018-08-16T01:15:35.593Z,92.66
2018-08-16T01:18:33.716Z,94.57
2018-08-16T01:21:31.858Z,96.18
2018-08-16T01:24:31.748Z,96.11
2018-08-16T01:27:29.830Z,95.77
2018-08-16T01:30:29.222Z,96.66
2018-08-16T01:33:27.397Z,96.01
2018-08-16T01:36:25.552Z,96.24
2018-08-16T01:39:23.846Z,95.57
2018-08-16T01:42:22.290Z,94.69
2018-08-16T01:45:20.517Z,92.08
2018-08-16T01:48:19.566Z,92.13
2018-08-16T01:51:17.930Z,91.87
2018-08-16T01:54:16.478Z,93.01
2018-08-16T01:57:14.424Z,92.48
2018-08-16T02:00:12.573Z,91.49
2018-08-16T02:03:10.643Z,91.93
2018-08-16T02:06:08.809Z,91.71
2018-08-16T02:09:06.947Z,88.07
2018-08-16T02:12:05.079Z,90.68
2018-08-16T02:15:03.184Z,91.03
2018-08-16T02:18:01.248Z,91.55
2018-08-16T02:20:59.365Z,94.56
2018-08-16T02:23:58.317Z,94.90
2018-08-16T02:26:56.517Z,94.64
2018-08-16T02:29:54.577Z,94.99
2018-08-16T02:32:52.986Z,94.97
2018-08-16T02:35:50.846Z,94.14
2018-08-16T02:38:48.969Z,92.79
2018-08-16T02:41:48.379Z,92.44
2018-08-16T02:44:46.236Z,93.20
2018-08-16T02:47:44.226Z,91.37
2018-08-16T02:50:42.687Z,91.96
2018-08-16T02:53:41.757Z,90.58
2018-08-16T02:56:40.965Z,91.43
2018-08-16T02:59:39.321Z,91.52
2018-08-16T03:02:37.555Z,93.70
2018-08-16T03:05:35.697Z,94.77
2018-08-16T03:08:34.002Z,94.82
2018-08-16T03:11:32.242Z,93.74
2018-08-16T03:14:30.111Z,93.00
2018-08-16T03:17:28.301Z,92.65
2018-08-16T03:20:26.320Z,90.67
2018-08-16T03:23:24.887Z,91.05
2018-08-16T03:26:22.956Z,91.47
2018-08-16T03:29:20.936Z,89.07
2018-08-16T03:32:19.175Z,88.62
2018-08-16T03:35:17.494Z,89.39
2018-08-16T03:38:16.220Z,92.79
2018-08-16T03:41:13.985Z,94.83
2018-08-16T03:44:11.958Z,95.54
2018-08-16T03:47:10.215Z,95.36
2018-08-16T03:50:08.380Z,94.94
2018-08-16T03:53:09.396Z,96.11
2018-08-16T03:56:07.261Z,94.55
2018-08-16T03:59:05.276Z,95.07
2018-08-16T04:02:03.456Z,95.40
2018-08-16T04:05:02.556Z,95.70
2018-08-16T04:08:00.870Z,96.66
2018-08-16T04:10:58.988Z,96.28
2018-08-16T04:13:56.941Z,95.33
2018-08-16T04:16:56.104Z,94.84
2018-08-16T04:19:54.202Z,94.06
2018-08-16T04:22:52.445Z,93.55
2018-08-16T04:25:50.689Z,93.86
2018-08-16T04:28:48.676Z,94.88
2018-08-16T04:31:47.139Z,95.21
2018-08-16T04:34:46.237Z,95.44
2018-08-16T04:37:44.369Z,95.68
2018-08-16T04:40:42.952Z,95.48
2018-08-16T04:43:40.729Z,95.13
2018-08-16T04:46:39.024Z,95.01
2018-08-16T04:49:38.060Z,94.62
2018-08-16T04:52:37.058Z,94.45
2018-08-16T04:55:36.222Z,94.44
2018-08-16T04:58:34.345Z,95.01
2018-08-16T05:01:32.753Z,95.41
2018-08-16T05:04:30.865Z,95.86
2018-08-16T05:07:29.086Z,95.20
2018-08-16T05:10:28.269Z,94.12
2018-08-16T05:13:26.484Z,93.82
2018-08-16T05:16:25.013Z,93.91
2018-08-16T05:19:23.398Z,92.50
2018-08-16T05:22:22.864Z,91.44
2018-08-16T05:25:21.954Z,90.68
2018-08-16T05:28:20.124Z,89.79
2018-08-16T05:31:18.262Z,89.40
2018-08-16T05:34:16.530Z,88.87
2018-08-16T05:37:14.368Z,88.90
2018-08-16T05:40:12.466Z,88.31
2018-08-16T05:43:10.833Z,88.39
2018-08-16T05:46:08.861Z,87.60
2018-08-16T05:49:06.831Z,87.53
2018-08-16T05:52:05.152Z,87.51
2018-08-16T05:55:03.459Z,86.82
2018-08-16T05:58:01.831Z,86.62
2018-08-16T06:01:00.392Z,87.95
2018-08-16T06:03:58.471Z,87.32
2018-08-16T06:06:57.470Z,87.20
2018-08-16T06:09:55.801Z,85.73
2018-08-16T06:12:54.169Z,85.40
2018-08-16T06:15:52.900Z,84.74
2018-08-16T06:18:51.093Z,84.46
2018-08-16T06:21:49.938Z,83.78
2018-08-16T06:24:47.944Z,82.30
2018-08-16T06:27:46.106Z,82.34
2018-08-16T06:30:44.269Z,82.62
2018-08-16T06:33:45.310Z,81.74
2018-08-16T06:36:43.410Z,80.98
2018-08-16T06:39:41.317Z,80.09
2018-08-16T06:42:39.384Z,79.89
2018-08-16T06:45:37.450Z,78.95
2018-08-16T06:48:35.499Z,78.96
2018-08-16T06:51:34.719Z,78.26
2018-08-16T06:54:32.840Z,77.20
2018-08-16T06:57:30.915Z,75.75
2018-08-16T07:00:28.759Z,74.60
2018-08-16T07:03:28.053Z,74.52
2018-08-16T07:06:26.004Z,73.74
2018-08-16T07:09:24.283Z,73.79
2018-08-16T07:12:22.555Z,73.22
2018-08-16T07:15:23.662Z,72.63
2018-08-16T07:18:22.247Z,72.77
2018-08-16T07:21:20.420Z,72.30
2018-08-16T07:24:18.855Z,71.59
2018-08-16T07:27:17.144Z,70.25
2018-08-16T07:30:15.288Z,69.87
2018-08-16T07:33:14.274Z,69.25
2018-08-16T07:36:12.372Z,67.87
2018-08-16T07:39:11.417Z,66.61
2018-08-16T07:42:09.575Z,65.47
2018-08-16T07:45:07.495Z,64.96
2018-08-16T07:48:05.709Z,65.30
2018-08-16T07:51:04.112Z,64.69
2018-08-16T07:54:02.246Z,62.53
2018-08-16T07:57:00.456Z,62.95
2018-08-16T07:59:58.248Z,62.13
2018-08-16T08:02:56.785Z,60.53
2018-08-16T08:05:54.795Z,60.76
2018-08-16T08:08:54.148Z,60.31
2018-08-16T08:11:52.440Z,58.13
2018-08-16T08:14:51.302Z,58.52
2018-08-16T08:17:49.527Z,57.39
2018-08-16T08:20:47.245Z,57.58
2018-08-16T08:23:45.376Z,57.15
2018-08-16T08:26:43.597Z,56.38
2018-08-16T08:29:42.639Z,55.83
2018-08-16T08:32:40.729Z,54.91
2018-08-16T08:35:38.772Z,55.99
2018-08-16T08:38:38.240Z,54.15
2018-08-16T08:41:36.442Z,53.50
2018-08-16T08:44:36.961Z,53.07
2018-08-16T08:47:42.951Z,52.04
2018-08-16T08:50:41.997Z,52.63
2018-08-16T08:54:59.375Z,52.15
2018-08-16T08:59:12.225Z,51.03
2018-08-16T09:02:10.410Z,50.11
2018-08-16T09:05:08.608Z,47.38
2018-08-16T09:08:07.621Z,46.95
2018-08-16T09:11:29.624Z,47.54
2018-08-16T09:14:39.971Z,46.93
2018-08-16T09:17:38.517Z,46.46
2018-08-16T09:20:36.584Z,46.69
2018-08-16T09:23:35.359Z,47.55
2018-08-16T09:26:40.086Z,46.55
2018-08-16T09:30:54.521Z,45.72
2018-08-16T09:34:05.718Z,46.38
2018-08-16T09:37:04.062Z,47.62
2018-08-16T09:40:01.966Z,47.62
2018-08-16T09:43:00.235Z,47.13
2018-08-16T09:47:19.122Z,46.19
2018-08-16T09:50:17.251Z,47.00
2018-08-16T09:53:15.327Z,45.84
2018-08-16T09:56:13.373Z,45.76
2018-08-16T09:59:12.364Z,45.37
2018-08-16T10:02:10.594Z,45.01
2018-08-16T10:05:08.596Z,45.61
2018-08-16T10:08:06.579Z,43.52
2018-08-16T10:11:05.060Z,44.33
2018-08-16T10:14:06.044Z,42.19
2018-08-16T10:17:05.267Z,42.25
2018-08-16T10:20:03.405Z,43.40
2018-08-16T10:23:03.089Z,40.60
2018-08-16T10:26:01.362Z,41.91
2018-08-16T10:28:59.933Z,42.16
2018-08-16T10:31:58.349Z,40.81
2018-08-16T10:34:56.570Z,40.51
2018-08-16T10:37:54.644Z,40.84
2018-08-16T10:40:53.191Z,38.95
2018-08-16T10:43:59.658Z,38.14
2018-08-16T10:46:57.923Z,39.21
2018-08-16T10:49:55.766Z,40.19
2018-08-16T10:52:53.960Z,41.13
2018-08-16T10:55:53.929Z,44.22
2018-08-16T10:58:52.014Z,43.22
2018-08-16T11:01:51.210Z,43.69
2018-08-16T11:04:52.194Z,42.90
2018-08-16T11:07:50.480Z,42.28
2018-08-16T11:10:48.416Z,42.63
2018-08-16T11:13:46.621Z,42.64
2018-08-16T11:16:44.713Z,42.28
2018-08-16T11:19:42.809Z,41.90
2018-08-16T11:22:41.240Z,42.88
2018-08-16T11:25:40.066Z,39.93
2018-08-16T11:28:37.772Z,39.65
2018-08-16T11:31:35.865Z,36.54
2018-08-16T11:34:33.832Z,35.78
2018-08-16T11:37:31.682Z,36.02
2018-08-16T11:40:29.887Z,35.49
2018-08-16T11:43:28.112Z,36.25
2018-08-16T11:46:26.409Z,37.14
2018-08-16T11:49:24.645Z,37.06
2018-08-16T11:52:22.794Z,37.81
2018-08-16T11:55:20.848Z,36.62
2018-08-16T11:58:19.020Z,37.17
2018-08-16T12:01:17.093Z,36.85
2018-08-16T12:04:14.944Z,34.75
2018-08-16T12:07:13.299Z,32.42
2018-08-16T12:10:11.324Z,31.73
2018-08-16T12:13:09.523Z,33.21
2018-08-16T12:16:07.716Z,31.04
2018-08-16T12:19:05.757Z,29.65
2018-08-16T12:22:04.045Z,30.11
2018-08-16T12:25:01.874Z,29.31
2018-08-16T12:27:59.855Z,27.34
2018-08-16T12:30:59.026Z,26.03
2018-08-16T12:33:57.377Z,28.24
2018-08-16T12:36:55.542Z,28.09
2018-08-16T12:39:53.632Z,28.12
2018-08-16T12:42:52.558Z,28.53
2018-08-16T12:45:51.791Z,27.89
2018-08-16T12:48:49.958Z,27.18
2018-08-16T12:51:48.097Z,27.94
2018-08-16T12:54:46.157Z,28.97
2018-08-16T12:57:45.554Z,30.53
2018-08-16T13:00:43.963Z,30.92
2018-08-16T13:03:42.245Z,31.12
2018-08-16T13:06:40.258Z,32.48
2018-08-16T13:09:39.614Z,31.82
2018-08-16T13:12:37.869Z,32.00
2018-08-16T13:15:36.981Z,31.86
2018-08-16T13:18:35.255Z,32.51
2018-08-16T13:21:33.426Z,33.54
2018-08-16T13:24:32.454Z,32.07
2018-08-16T13:27:31.652Z,32.17
2018-08-16T13:30:29.604Z,32.13
2018-08-16T13:33:27.668Z,32.64
2018-08-16T13:36:25.557Z,29.25
2018-08-16T13:39:24.735Z,25.95
2018-08-16T13:42:23.965Z,26.43
2018-08-16T13:45:29.975Z,27.72
2018-08-16T13:48:28.236Z,27.40
2018-08-16T13:51:27.449Z,29.79
2018-08-16T13:54:25.969Z,31.24
2018-08-16T13:57:24.230Z,32.33
2018-08-16T14:00:23.224Z,33.43
2018-08-16T14:03:22.318Z,33.72
2018-08-16T14:06:32.865Z,33.97
2018-08-16T14:09:01.688Z,33.46
2018-08-16T14:11:30.310Z,34.08
2018-08-16T14:13:59.014Z,33.85
2018-08-16T14:16:27.623Z,33.04
2018-08-16T14:18:56.354Z,33.08
2018-08-16T14:21:25.048Z,33.95
2018-08-16T14:23:53.724Z,34.60
2018-08-16T14:26:22.436Z,33.13
2018-08-16T14:28:51.107Z,32.57
2018-08-16T14:31:19.828Z,33.56
2018-08-16T14:33:48.388Z,32.55
2018-08-16T14:36:16.977Z,31.69
2018-08-16T14:38:45.650Z,31.73
2018-08-16T14:41:14.482Z,32.06
2018-08-16T14:43:43.142Z,29.89
2018-08-16T14:46:11.950Z,30.03
2018-08-16T14:48:41.069Z,29.43
2018-08-16T14:51:09.841Z,29.07
2018-08-16T14:53:38.653Z,29.62
2018-08-16T14:56:07.734Z,29.70
2018-08-16T14:58:36.413Z,30.66
2018-08-16T15:01:10.660Z,30.04
2018-08-16T15:03:39.448Z,29.21
2018-08-16T15:06:08.468Z,32.16
2018-08-16T15:08:38.204Z,31.91
2018-08-16T15:11:07.939Z,31.94
2018-08-16T15:13:36.602Z,33.67
2018-08-16T15:16:05.375Z,35.88
2018-08-16T15:18:34.043Z,34.75
2018-08-16T15:21:02.741Z,35.36
2018-08-16T15:23:32.596Z,34.73
2018-08-16T15:26:01.589Z,35.03
2018-08-16T15:28:31.227Z,34.05
2018-08-16T15:31:00.177Z,32.65
2018-08-16T15:33:28.733Z,31.51
2018-08-16T15:35:57.403Z,30.18
2018-08-16T15:38:26.026Z,29.08
2018-08-16T15:40:54.668Z,29.12
2018-08-16T15:43:23.514Z,29.37
2018-08-16T15:45:52.273Z,28.87
2018-08-16T15:48:20.991Z,28.76
2018-08-16T15:50:49.876Z,27.00
2018-08-16T15:53:18.555Z,27.27
2018-08-16T15:55:47.442Z,27.86
2018-08-16T15:58:16.156Z,27.06
2018-08-16T16:00:44.817Z,28.10
2018-08-16T16:03:13.737Z,28.25
2018-08-16T16:05:42.507Z,29.32
2018-08-16T16:08:11.252Z,29.92
2018-08-16T16:10:40.022Z,30.57
2018-08-16T16:13:08.831Z,31.59
2018-08-16T16:15:37.482Z,31.14
2018-08-16T16:18:06.448Z,30.64
2018-08-16T16:20:35.637Z,30.74
2018-08-16T16:23:04.361Z,32.23
2018-08-16T16:25:33.982Z,32.98
2018-08-16T16:28:03.125Z,33.40
2018-08-16T16:30:32.728Z,34.08
2018-08-16T16:33:01.365Z,35.31
2018-08-16T16:35:30.031Z,34.35
2018-08-16T16:37:59.542Z,34.95
2018-08-16T16:40:29.416Z,36.78
2018-08-16T16:42:58.093Z,36.70
2018-08-16T16:45:26.854Z,37.95
2018-08-16T16:47:55.692Z,37.72
2018-08-16T16:50:24.424Z,39.79
2018-08-16T16:52:53.167Z,40.38
2018-08-16T16:55:21.773Z,41.14
2018-08-16T16:57:50.664Z,43.14
2018-08-16T17:00:19.330Z,42.74
2018-08-16T17:02:48.012Z,43.12
2018-08-16T17:05:16.695Z,43.90
2018-08-16T17:07:45.404Z,44.41
2018-08-16T17:10:14.656Z,43.75
2018-08-16T17:12:44.161Z,42.32
2018-08-16T17:15:12.929Z,42.44
2018-08-16T17:17:42.002Z,41.61
2018-08-16T17:20:11.640Z,42.00
2018-08-16T17:22:40.708Z,41.69
2018-08-16T17:25:09.399Z,42.57
2018-08-16T17:27:38.012Z,43.13
2018-08-16T17:30:07.309Z,42.80
2018-08-16T17:32:35.885Z,43.37
2018-08-16T17:35:05.299Z,43.38
2018-08-16T17:37:34.052Z,44.55
2018-08-16T17:40:03.004Z,45.38
2018-08-16T17:42:31.835Z,45.95
2018-08-16T17:45:00.465Z,46.12
2018-08-16T17:47:29.789Z,46.77
2018-08-16T17:49:58.604Z,47.37
2018-08-16T17:52:27.401Z,47.07
2018-08-16T17:54:56.465Z,48.23
2018-08-16T17:57:25.097Z,48.31
2018-08-16T17:59:53.871Z,49.28
2018-08-16T18:02:22.552Z,49.10
2018-08-16T18:04:51.148Z,50.35
2018-08-16T18:07:19.929Z,51.81
2018-08-16T18:09:48.598Z,52.46
2018-08-16T18:12:17.413Z,51.54
2018-08-16T18:14:46.061Z,52.48
2018-08-16T18:17:15.377Z,52.58
2018-08-16T18:19:43.986Z,52.79
2018-08-16T18:22:12.581Z,53.77
2018-08-16T18:24:41.220Z,54.08
2018-08-16T18:27:09.845Z,53.34
2018-08-16T18:29:38.475Z,55.16
2018-08-16T18:32:07.307Z,55.98
2018-08-16T18:34:37.295Z,55.82
2018-08-16T18:37:05.971Z,56.56
2018-08-16T18:39:36.328Z,56.79
2018-08-16T18:42:04.994Z,55.91
2018-08-16T18:44:33.674Z,56.78
2018-08-16T18:47:02.348Z,56.74
2018-08-16T18:49:30.932Z,57.63
2018-08-16T18:52:00.785Z,58.17
2018-08-16T18:54:29.558Z,58.81
2018-08-16T18:56:58.156Z,59.74
2018-08-16T18:59:27.115Z,60.86
2018-08-16T19:01:55.784Z,60.03
2018-08-16T19:04:24.412Z,60.50
2018-08-16T19:06:53.378Z,60.47
2018-08-16T19:09:22.147Z,61.38
2018-08-16T19:11:50.973Z,62.11
2018-08-16T19:14:19.751Z,62.34
2018-08-16T19:16:48.358Z,62.98
2018-08-16T19:19:17.015Z,64.30
2018-08-16T19:21:45.742Z,64.78
2018-08-16T19:24:14.395Z,65.42
2018-08-16T19:26:43.009Z,65.53
2018-08-16T19:29:11.745Z,66.16
2018-08-16T19:31:40.588Z,65.74
2018-08-16T19:34:09.393Z,66.15
2018-08-16T19:36:38.081Z,66.38
2018-08-16T19:39:09.917Z,67.18
2018-08-16T19:41:38.614Z,66.89
2018-08-16T19:44:07.436Z,67.48
2018-08-16T19:46:36.322Z,67.44
2018-08-16T19:49:05.601Z,67.63
2018-08-16T19:51:34.243Z,68.44
2018-08-16T19:54:02.939Z,68.49
2018-08-16T19:56:31.765Z,68.85
2018-08-16T19:59:00.484Z,69.07
2018-08-16T20:01:29.437Z,68.91
2018-08-16T20:03:59.223Z,68.82
2018-08-16T20:06:27.823Z,69.66
2018-08-16T20:08:56.690Z,69.50
2018-08-16T20:11:25.293Z,70.57
2018-08-16T20:13:54.621Z,69.98
2018-08-16T20:16:23.932Z,69.55
2018-08-16T20:18:52.702Z,69.40
2018-08-16T20:21:21.593Z,69.35
2018-08-16T20:23:50.230Z,70.33
2018-08-16T20:26:18.915Z,71.02
2018-08-16T20:28:47.856Z,71.33
2018-08-16T20:31:16.661Z,72.23
2018-08-16T20:33:45.413Z,72.32
2018-08-16T20:36:14.293Z,73.29
2018-08-16T20:38:43.505Z,73.25
2018-08-16T20:41:12.510Z,72.49
2018-08-16T20:43:41.201Z,72.53
2018-08-16T20:46:09.838Z,72.92
2018-08-16T20:48:38.580Z,72.98
2018-08-16T20:51:07.495Z,72.88
2018-08-16T20:53:36.142Z,72.21
2018-08-16T20:56:05.457Z,72.78
2018-08-16T20:58:34.077Z,73.57
2018-08-16T21:01:02.771Z,73.52
2018-08-16T21:03:32.134Z,74.11
2018-08-16T21:06:00.793Z,73.83
2018-08-16T21:08:29.421Z,73.99
2018-08-16T21:10:58.123Z,74.17
2018-08-16T21:13:26.865Z,74.64
2018-08-16T21:15:55.504Z,75.77
2018-08-16T21:18:24.222Z,76.45
2018-08-16T21:20:52.972Z,76.30
2018-08-16T21:23:21.719Z,76.76
2018-08-16T21:25:50.576Z,76.67
2018-08-16T21:28:19.333Z,77.12
2018-08-16T21:30:47.985Z,77.59
2018-08-16T21:33:16.676Z,78.41
2018-08-16T21:35:45.320Z,78.28
2018-08-16T21:38:15.136Z,78.25
2018-08-16T21:40:44.080Z,78.78
2018-08-16T21:43:12.733Z,78.86
2018-08-16T21:45:42.130Z,79.04
2018-08-16T21:48:10.913Z,79.16
2018-08-16T21:50:39.783Z,79.35
2018-08-16T21:53:09.440Z,79.66
2018-08-16T21:55:38.115Z,79.80
2018-08-16T21:58:06.731Z,79.93
2018-08-16T22:00:56.639Z,79.35
2018-08-16T22:03:27.658Z,79.60
2018-08-16T22:06:03.531Z,79.88
2018-08-16T22:08:45.902Z,79.48
2018-08-16T22:11:14.603Z,79.45
2018-08-16T22:13:43.274Z,79.57
2018-08-16T22:16:12.248Z,79.04
2018-08-16T22:18:41.230Z,79.24
2018-08-16T22:21:10.943Z,79.16
2018-08-16T22:23:39.716Z,79.23
2018-08-16T22:26:08.502Z,79.16
2018-08-16T22:28:37.140Z,79.77
2018-08-16T22:31:05.923Z,79.97
2018-08-16T22:33:34.732Z,80.01
2018-08-16T22:36:03.432Z,79.76
2018-08-16T22:38:32.206Z,80.13
2018-08-16T22:41:00.822Z,80.11
2018-08-16T22:43:30.137Z,80.19
2018-08-16T22:45:58.777Z,80.25
2018-08-16T22:48:27.385Z,80.61
2018-08-16T22:50:56.126Z,80.33
2018-08-16T22:53:24.892Z,80.27
2018-08-16T22:55:53.683Z,80.37
2018-08-16T22:58:22.361Z,80.50
2018-08-16T23:00:50.908Z,79.83
2018-08-16T23:03:19.589Z,79.83
2018-08-16T23:05:48.416Z,80.29
2018-08-16T23:08:17.096Z,79.59
2018-08-16T23:10:45.822Z,79.82
2018-08-16T23:13:14.614Z,79.66
2018-08-16T23:15:43.756Z,79.77
2018-08-16T23:18:12.492Z,79.42
2018-08-16T23:20:41.080Z,79.53
2018-08-16T23:23:09.667Z,79.32
2018-08-16T23:25:38.264Z,80.01
2018-08-16T23:28:06.873Z,80.32
2018-08-16T23:30:36.624Z,80.46
2018-08-16T23:33:05.424Z,80.28
2018-08-16T23:35:35.076Z,80.07
2018-08-16T23:38:03.905Z,80.11
2018-08-16T23:40:32.697Z,80.07
2018-08-16T23:43:01.389Z,80.65
2018-08-16T23:45:30.075Z,80.20
2018-08-16T23:48:09.752Z,80.58
2018-08-16T23:50:38.470Z,80.61
2018-08-16T23:53:07.303Z,80.47
2018-08-16T23:55:36.936Z,80.73
2018-08-16T23:58:05.766Z,80.64
